createdAt,value
2019-06-01T00:00:32.270Z,17.10
2019-06-01T00:03:59.600Z,16.80
2019-06-01T00:07:27.157Z,16.42
2019-06-01T00:10:52.831Z,16.29
2019-06-01T00:14:19.738Z,16.38
2019-06-01T00:17:47.989Z,16.24
2019-06-01T00:21:13.682Z,16.06
2019-06-01T00:24:39.862Z,16.14
2019-06-01T00:28:05.518Z,16.14
2019-06-01T00:31:31.193Z,15.80
2019-06-01T00:34:56.840Z,15.68
2019-06-01T00:38:22.528Z,15.68
2019-06-01T00:41:48.133Z,15.78
2019-06-01T00:45:14.603Z,15.68
2019-06-01T00:48:40.188Z,15.58
2019-06-01T00:52:05.855Z,15.53
2019-06-01T00:55:31.458Z,15.62
2019-06-01T00:58:57.056Z,15.62
2019-06-01T01:02:22.657Z,15.31
2019-06-01T01:05:48.718Z,15.35
2019-06-01T01:09:14.327Z,15.36
2019-06-01T01:12:41.572Z,15.13
2019-06-01T01:16:07.155Z,15.17
2019-06-01T01:19:32.760Z,14.94
2019-06-01T01:22:58.351Z,14.89
2019-06-01T01:26:23.995Z,14.76
2019-06-01T01:29:50.903Z,14.76
2019-06-01T01:33:16.534Z,14.72
2019-06-01T01:36:42.123Z,14.74
2019-06-01T01:40:08.167Z,14.72
2019-06-01T01:43:35.032Z,14.65
2019-06-01T01:47:00.660Z,14.59
2019-06-01T01:50:27.772Z,14.59
2019-06-01T01:53:54.607Z,14.55
2019-06-01T01:57:20.440Z,14.54
2019-06-01T02:00:49.492Z,14.54
2019-06-01T02:04:15.093Z,14.44
2019-06-01T02:07:40.681Z,14.28
2019-06-01T02:11:06.272Z,14.25
2019-06-01T02:14:32.741Z,14.24
2019-06-01T02:17:58.359Z,14.14
2019-06-01T02:21:23.958Z,14.10
2019-06-01T02:24:49.548Z,13.88
2019-06-01T02:28:15.147Z,13.86
2019-06-01T02:31:42.870Z,13.87
2019-06-01T02:35:09.063Z,13.81
2019-06-01T02:38:34.656Z,13.71
2019-06-01T02:42:01.265Z,13.76
2019-06-01T02:45:27.847Z,13.69
2019-06-01T02:48:53.456Z,13.71
2019-06-01T02:52:19.062Z,13.55
2019-06-01T02:55:44.661Z,13.47
2019-06-01T02:59:10.298Z,13.52
2019-06-01T03:02:35.934Z,13.49
2019-06-01T03:06:05.502Z,13.51
2019-06-01T03:09:33.614Z,13.53
2019-06-01T03:13:02.122Z,13.46
2019-06-01T03:16:30.385Z,13.39
2019-06-01T03:19:59.545Z,13.32
2019-06-01T03:23:27.478Z,13.16
2019-06-01T03:26:55.765Z,13.21
2019-06-01T03:30:45.498Z,13.19
2019-06-01T03:34:11.249Z,13.12
2019-06-01T03:37:36.730Z,13.10
2019-06-01T03:41:02.335Z,13.16
2019-06-01T03:44:28.005Z,13.12
2019-06-01T03:47:53.688Z,13.12
2019-06-01T03:51:19.286Z,13.18
2019-06-01T03:54:44.895Z,13.21
2019-06-01T03:58:11.203Z,13.26
2019-06-01T04:01:36.987Z,13.12
2019-06-01T04:05:03.585Z,13.16
2019-06-01T04:08:29.366Z,13.15
2019-06-01T04:11:54.962Z,13.10
2019-06-01T04:15:21.104Z,13.26
2019-06-01T04:18:46.696Z,13.40
2019-06-01T04:22:14.108Z,13.49
2019-06-01T04:25:39.710Z,13.53
2019-06-01T04:29:08.205Z,13.59
2019-06-01T04:32:48.798Z,13.69
2019-06-01T04:36:01.241Z,13.78
2019-06-01T04:39:26.832Z,13.82
2019-06-01T04:42:52.448Z,13.85
2019-06-01T04:46:18.052Z,14.03
2019-06-01T04:49:44.722Z,14.09
2019-06-01T04:53:11.885Z,14.14
2019-06-01T04:56:37.708Z,14.14
2019-06-01T05:00:10.086Z,14.26
2019-06-01T05:03:32.206Z,14.30
2019-06-01T05:06:57.797Z,14.33
2019-06-01T05:10:23.387Z,14.48
2019-06-01T05:13:48.991Z,14.58
2019-06-01T05:17:16.544Z,14.67
2019-06-01T05:20:44.114Z,14.71
2019-06-01T05:24:10.656Z,14.85
2019-06-01T05:27:36.852Z,14.82
2019-06-01T05:31:02.447Z,14.88
2019-06-01T05:34:28.061Z,15.01
2019-06-01T05:37:54.017Z,15.10
2019-06-01T05:41:20.014Z,15.14
2019-06-01T05:44:45.723Z,15.19
2019-06-01T05:48:12.938Z,15.31
2019-06-01T05:51:38.667Z,15.35
2019-06-01T05:55:07.570Z,15.47
2019-06-01T05:58:33.174Z,15.66
2019-06-01T06:01:58.772Z,15.89
2019-06-01T06:05:24.372Z,15.97
2019-06-01T06:08:50.816Z,16.12
2019-06-01T06:12:17.322Z,16.30
2019-06-01T06:15:43.023Z,16.48
2019-06-01T06:19:08.619Z,16.57
2019-06-01T06:22:34.215Z,16.69
2019-06-01T06:26:00.383Z,16.79
2019-06-01T06:29:25.979Z,16.98
2019-06-01T06:32:51.592Z,17.07
2019-06-01T06:36:17.812Z,17.26
2019-06-01T06:39:43.461Z,17.40
2019-06-01T06:43:19.119Z,17.42
2019-06-01T06:46:36.407Z,17.49
2019-06-01T06:50:03.169Z,17.63
2019-06-01T06:53:34.988Z,17.81
2019-06-01T06:56:56.148Z,17.94
2019-06-01T07:00:22.674Z,18.10
2019-06-01T07:03:48.377Z,18.20
2019-06-01T07:07:13.978Z,18.31
2019-06-01T07:10:39.607Z,18.44
2019-06-01T07:14:05.424Z,18.60
2019-06-01T07:17:31.868Z,18.72
2019-06-01T07:20:57.518Z,18.87
2019-06-01T07:24:23.898Z,18.98
2019-06-01T07:27:50.823Z,18.99
2019-06-01T07:31:16.403Z,19.03
2019-06-01T07:34:42.873Z,19.09
2019-06-01T07:38:08.684Z,19.16
2019-06-01T07:41:34.289Z,19.22
2019-06-01T07:44:59.892Z,19.35
2019-06-01T07:48:27.020Z,19.52
2019-06-01T07:51:52.865Z,19.64
2019-06-01T07:55:18.629Z,19.70
2019-06-01T07:58:44.223Z,19.81
2019-06-01T08:02:09.844Z,19.88
2019-06-01T08:05:35.434Z,19.84
2019-06-01T08:09:01.025Z,19.94
2019-06-01T08:12:29.533Z,20.01
2019-06-01T08:15:55.355Z,20.18
2019-06-01T08:19:22.080Z,20.14
2019-06-01T08:22:47.741Z,20.27
2019-06-01T08:26:13.423Z,20.36
2019-06-01T08:29:39.131Z,20.37
2019-06-01T08:33:04.798Z,20.43
2019-06-01T08:36:31.695Z,20.41
2019-06-01T08:39:59.248Z,20.49
2019-06-01T08:43:25.491Z,20.57
2019-06-01T08:46:51.241Z,20.62
2019-06-01T08:50:17.167Z,20.62
2019-06-01T08:53:42.790Z,20.60
2019-06-01T08:57:08.389Z,20.70
2019-06-01T09:00:34.715Z,20.83
2019-06-01T09:04:00.366Z,20.90
2019-06-01T09:07:26.885Z,21.02
2019-06-01T09:10:52.562Z,21.08
2019-06-01T09:14:18.168Z,21.15
2019-06-01T09:17:43.764Z,21.16
2019-06-01T09:21:09.401Z,21.13
2019-06-01T09:24:36.173Z,21.20
2019-06-01T09:28:01.897Z,21.37
2019-06-01T09:31:28.380Z,21.48
2019-06-01T09:34:53.976Z,21.62
2019-06-01T09:38:19.588Z,21.76
2019-06-01T09:41:45.191Z,21.89
2019-06-01T09:45:11.419Z,21.92
2019-06-01T09:48:37.835Z,22.07
2019-06-01T09:52:03.487Z,22.01
2019-06-01T09:55:30.755Z,22.09
2019-06-01T09:58:56.368Z,22.27
2019-06-01T10:02:21.970Z,22.35
2019-06-01T10:06:01.361Z,22.55
2019-06-01T10:09:14.884Z,22.55
2019-06-01T10:12:40.471Z,22.61
2019-06-01T10:16:06.209Z,22.46
2019-06-01T10:19:32.594Z,22.82
2019-06-01T10:22:58.256Z,23.01
2019-06-01T10:26:23.825Z,22.93
2019-06-01T10:29:49.449Z,22.78
2019-06-01T10:33:15.283Z,23.12
2019-06-01T10:36:42.133Z,23.18
2019-06-01T10:40:09.065Z,23.16
2019-06-01T10:43:35.594Z,23.03
2019-06-01T10:47:01.196Z,23.07
2019-06-01T10:50:26.807Z,23.24
2019-06-01T10:53:52.403Z,23.42
2019-06-01T10:57:18.014Z,23.44
2019-06-01T11:00:49.441Z,23.67
2019-06-01T11:04:10.976Z,23.87
2019-06-01T11:07:36.907Z,23.95
2019-06-01T11:11:02.738Z,23.94
2019-06-01T11:14:28.329Z,23.99
2019-06-01T11:17:54.012Z,24.05
2019-06-01T11:21:19.610Z,24.03
2019-06-01T11:24:45.219Z,23.99
2019-06-01T11:28:10.814Z,24.16
2019-06-01T11:31:38.180Z,24.35
2019-06-01T11:35:05.996Z,24.52
2019-06-01T11:38:31.606Z,24.42
2019-06-01T11:41:57.198Z,24.71
2019-06-01T11:45:23.161Z,24.98
2019-06-01T11:48:48.764Z,25.28
2019-06-01T11:52:14.936Z,25.19
2019-06-01T11:55:41.331Z,25.41
2019-06-01T11:59:07.087Z,25.76
2019-06-01T12:02:32.688Z,26.19
2019-06-01T12:05:58.295Z,26.45
2019-06-01T12:09:23.896Z,26.85
2019-06-01T12:12:49.573Z,27.14
2019-06-01T12:16:15.168Z,27.54
2019-06-01T12:19:40.834Z,27.65
2019-06-01T12:23:06.425Z,28.01
2019-06-01T12:26:32.047Z,28.45
2019-06-01T12:29:57.658Z,28.84
2019-06-01T12:33:23.287Z,28.88
2019-06-01T12:36:48.882Z,29.32
2019-06-01T12:40:15.667Z,29.79
2019-06-01T12:43:43.581Z,30.36
2019-06-01T12:47:09.913Z,30.57
2019-06-01T12:50:35.520Z,30.93
2019-06-01T12:54:01.345Z,31.36
2019-06-01T12:57:26.946Z,31.58
2019-06-01T13:00:52.655Z,31.54
2019-06-01T13:04:19.668Z,32.00
2019-06-01T13:07:57.461Z,32.66
2019-06-01T13:11:13.769Z,32.07
2019-06-01T13:14:39.368Z,32.25
2019-06-01T13:18:04.963Z,32.86
2019-06-01T13:21:30.556Z,33.65
2019-06-01T13:24:56.341Z,34.47
2019-06-01T13:28:37.252Z,35.33
2019-06-01T13:31:50.489Z,35.86
2019-06-01T13:35:16.245Z,36.35
2019-06-01T13:38:42.961Z,37.47
2019-06-01T13:42:08.671Z,38.13
2019-06-01T13:45:34.286Z,38.68
2019-06-01T13:48:59.919Z,38.97
2019-06-01T13:52:25.872Z,39.25
2019-06-01T13:55:51.474Z,39.37
2019-06-01T13:59:17.847Z,40.24
2019-06-01T14:02:48.579Z,40.32
2019-06-01T14:06:11.874Z,40.95
2019-06-01T14:09:38.795Z,42.42
2019-06-01T14:13:05.285Z,42.70
2019-06-01T14:16:31.222Z,43.33
2019-06-01T14:19:56.814Z,43.44
2019-06-01T14:23:22.417Z,44.80
2019-06-01T14:26:48.202Z,44.42
2019-06-01T14:30:18.169Z,44.41
2019-06-01T14:33:43.865Z,44.23
2019-06-01T14:37:09.459Z,44.49
2019-06-01T14:40:35.345Z,43.74
2019-06-01T14:44:00.968Z,43.40
2019-06-01T14:47:27.187Z,41.73
2019-06-01T14:50:53.778Z,41.30
2019-06-01T14:54:21.050Z,40.68
2019-06-01T14:57:48.432Z,41.35
2019-06-01T15:01:31.405Z,41.60
2019-06-01T15:04:41.847Z,42.30
2019-06-01T15:08:07.442Z,41.98
2019-06-01T15:11:33.065Z,42.35
2019-06-01T15:14:59.912Z,43.74
2019-06-01T15:18:26.189Z,44.04
2019-06-01T15:21:52.098Z,44.05
2019-06-01T15:25:17.956Z,44.67
2019-06-01T15:28:43.546Z,45.28
2019-06-01T15:32:09.164Z,47.36
2019-06-01T15:35:34.834Z,48.37
2019-06-01T15:39:00.437Z,48.38
2019-06-01T15:42:26.313Z,48.69
2019-06-01T15:45:55.341Z,50.08
2019-06-01T15:49:21.057Z,49.29
2019-06-01T15:52:46.657Z,48.78
2019-06-01T15:56:12.275Z,48.77
2019-06-01T15:59:37.864Z,49.97
2019-06-01T16:03:03.457Z,50.29
2019-06-01T16:06:31.182Z,50.56
2019-06-01T16:09:57.392Z,49.68
2019-06-01T16:13:23.038Z,49.40
2019-06-01T16:16:48.720Z,48.80
2019-06-01T16:20:14.811Z,49.00
2019-06-01T16:23:50.072Z,48.84
2019-06-01T16:27:07.876Z,49.38
2019-06-01T16:30:33.496Z,47.50
2019-06-01T16:33:59.160Z,47.22
2019-06-01T16:37:24.754Z,48.54
2019-06-01T16:40:50.348Z,48.44
2019-06-01T16:44:19.679Z,48.72
2019-06-01T16:47:43.618Z,48.29
2019-06-01T16:51:09.224Z,48.16
2019-06-01T16:54:34.839Z,48.18
2019-06-01T16:58:01.205Z,48.19
2019-06-01T17:01:27.772Z,47.51
2019-06-01T17:04:53.662Z,47.65
2019-06-01T17:08:19.243Z,46.80
2019-06-01T17:11:45.022Z,46.77
2019-06-01T17:15:12.429Z,45.39
2019-06-01T17:18:38.126Z,45.18
2019-06-01T17:22:03.702Z,45.11
2019-06-01T17:25:29.318Z,44.64
2019-06-01T17:28:54.906Z,44.26
2019-06-01T17:32:24.526Z,43.30
2019-06-01T17:35:47.957Z,42.78
2019-06-01T17:39:13.568Z,42.69
2019-06-01T17:42:40.710Z,43.04
2019-06-01T17:46:07.277Z,42.81
2019-06-01T17:49:32.981Z,43.38
2019-06-01T17:52:58.575Z,44.13
2019-06-01T17:56:24.169Z,44.71
2019-06-01T17:59:49.785Z,45.27
2019-06-01T18:03:15.452Z,45.10
2019-06-01T18:06:41.463Z,44.68
2019-06-01T18:10:10.214Z,45.47
2019-06-01T18:13:35.830Z,43.69
2019-06-01T18:17:02.146Z,42.95
2019-06-01T18:20:28.240Z,42.38
2019-06-01T18:23:53.904Z,41.93
2019-06-01T18:27:19.750Z,42.47
2019-06-01T18:30:45.537Z,42.68
2019-06-01T18:34:11.791Z,41.78
2019-06-01T18:37:37.486Z,41.21
2019-06-01T18:41:12.780Z,40.51
2019-06-01T18:44:30.698Z,40.67
2019-06-01T18:47:56.641Z,39.91
2019-06-01T18:51:22.309Z,39.22
2019-06-01T18:54:47.916Z,37.39
2019-06-01T18:58:14.791Z,35.52
2019-06-01T19:01:40.567Z,34.21
2019-06-01T19:05:11.157Z,33.86
2019-06-01T19:08:36.860Z,33.19
2019-06-01T19:12:02.445Z,32.96
2019-06-01T19:15:28.975Z,32.79
2019-06-01T19:18:54.730Z,32.40
2019-06-01T19:22:20.339Z,31.90
2019-06-01T19:25:47.084Z,31.54
2019-06-01T19:29:13.056Z,30.77
2019-06-01T19:32:39.183Z,29.88
2019-06-01T19:36:06.885Z,29.59
2019-06-01T19:39:33.659Z,29.49
2019-06-01T19:42:59.268Z,29.64
2019-06-01T19:46:24.926Z,29.18
2019-06-01T19:49:50.570Z,28.64
2019-06-01T19:53:16.843Z,28.60
2019-06-01T19:56:42.533Z,28.32
2019-06-01T20:00:10.154Z,27.73
2019-06-01T20:03:35.915Z,27.53
2019-06-01T20:07:01.528Z,27.24
2019-06-01T20:10:27.133Z,27.35
2019-06-01T20:13:52.726Z,26.90
2019-06-01T20:17:22.939Z,26.98
2019-06-01T20:20:45.616Z,26.56
2019-06-01T20:24:11.241Z,26.34
2019-06-01T20:27:37.002Z,26.05
2019-06-01T20:31:02.888Z,25.95
2019-06-01T20:34:28.475Z,25.63
2019-06-01T20:37:54.078Z,25.62
2019-06-01T20:41:20.679Z,25.53
2019-06-01T20:44:46.527Z,25.37
2019-06-01T20:48:13.349Z,24.99
2019-06-01T20:51:39.474Z,24.85
2019-06-01T20:55:07.646Z,24.74
2019-06-01T20:58:33.526Z,24.51
2019-06-01T21:01:59.115Z,24.36
2019-06-01T21:05:24.715Z,24.35
2019-06-01T21:08:50.377Z,24.27
2019-06-01T21:12:16.155Z,24.18
2019-06-01T21:15:42.023Z,23.64
2019-06-01T21:19:07.619Z,23.59
2019-06-01T21:22:33.881Z,23.49
2019-06-01T21:25:59.494Z,23.15
2019-06-01T21:29:26.717Z,22.82
2019-06-01T21:32:52.338Z,22.92
2019-06-01T21:36:17.916Z,22.76
2019-06-01T21:39:43.505Z,22.82
2019-06-01T21:43:23.659Z,22.90
2019-06-01T21:46:36.397Z,22.50
2019-06-01T21:50:02.015Z,22.51
2019-06-01T21:53:27.780Z,22.62
2019-06-01T21:56:53.390Z,22.46
2019-06-01T22:00:36.277Z,22.42
2019-06-01T22:04:02.346Z,22.58
2019-06-01T22:07:27.937Z,22.36
2019-06-01T22:10:53.547Z,21.95
2019-06-01T22:14:19.416Z,21.66
2019-06-01T22:17:45.133Z,21.51
2019-06-01T22:21:10.720Z,21.29
2019-06-01T22:24:36.802Z,21.45
2019-06-01T22:28:02.397Z,21.32
2019-06-01T22:31:28.658Z,21.46
2019-06-01T22:34:54.377Z,21.19
2019-06-01T22:38:20.005Z,21.23
2019-06-01T22:41:45.582Z,21.06
2019-06-01T22:45:11.899Z,21.01
2019-06-01T22:48:37.560Z,20.86
2019-06-01T22:52:03.176Z,20.61
2019-06-01T22:55:28.772Z,20.56
2019-06-01T22:58:54.375Z,20.56
2019-06-01T23:02:19.974Z,20.44
2019-06-01T23:05:45.723Z,20.28
2019-06-01T23:09:11.487Z,20.11
2019-06-01T23:12:37.403Z,20.06
2019-06-01T23:16:03.002Z,20.01
2019-06-01T23:19:29.841Z,19.93
2019-06-01T23:22:55.632Z,19.85
2019-06-01T23:26:22.094Z,19.65
2019-06-01T23:29:47.812Z,19.46
2019-06-01T23:33:13.486Z,19.36
2019-06-01T23:36:39.034Z,19.32
2019-06-01T23:40:06.365Z,19.32
2019-06-01T23:43:32.943Z,19.30
2019-06-01T23:46:58.642Z,19.11
2019-06-01T23:50:25.051Z,19.02
2019-06-01T23:53:51.232Z,18.84
2019-06-01T23:57:16.818Z,18.74
